Terminal Aerodrome Forecast
Issued by NWS

Home | Current Version | Previous Version | Text Only | Print | Product List | Glossary On
Versions: 1 2 3 4 5 6 7 8 9 10 11 12 13 14
000
FTUS46 KHNX 252029 AAB
TAFVIS
TAF AMD
KVIS 252029Z 2520/2618 13008KT P6SM -RA SCT015 OVC035
      TEMPO 2520/2522 BKN015
     FM252200 31009KT P6SM VCSH BKN020
     FM260200 31009KT P6SM SCT020
     FM261500 31011KT P6SM SKC=

USA.gov is the U.S. government's official web portal to all federal, state and local government web resources and services.